createdAt,value
2023-04-27T00:01:51.224Z,67.03
2023-04-27T00:04:16.978Z,66.81
2023-04-27T00:07:00.549Z,67.55
2023-04-27T00:09:45.144Z,67.38
2023-04-27T00:12:52.656Z,67.39
2023-04-27T00:15:47.456Z,67.24
2023-04-27T00:18:54.074Z,66.98
2023-04-27T00:30:25.881Z,67.69
2023-04-27T00:33:11.356Z,67.56
2023-04-27T00:36:23.237Z,67.59
2023-04-27T00:39:00.892Z,67.70
2023-04-27T00:42:01.782Z,67.77
2023-04-27T00:44:31.439Z,67.54
2023-04-27T00:47:09.480Z,67.11
2023-04-27T00:49:43.093Z,67.88
2023-04-27T00:52:19.919Z,67.43
2023-04-27T00:54:52.001Z,67.90
2023-04-27T01:00:19.153Z,67.75
2023-04-27T01:03:41.582Z,67.64
2023-04-27T01:06:28.181Z,67.56
2023-04-27T01:08:57.142Z,67.47
2023-04-27T01:11:29.224Z,67.83
2023-04-27T01:14:07.076Z,67.65
2023-04-27T01:16:41.776Z,67.51
2023-04-27T01:19:09.415Z,67.81
2023-04-27T01:21:41.423Z,67.96
2023-04-27T01:24:09.131Z,67.84
2023-04-27T01:26:41.393Z,67.83
2023-04-27T01:29:10.156Z,67.54
2023-04-27T01:31:39.923Z,68.09
2023-04-27T01:34:12.698Z,67.89
2023-04-27T01:36:42.083Z,68.00
2023-04-27T01:39:31.284Z,68.11
2023-04-27T01:42:01.073Z,67.77
2023-04-27T01:44:29.267Z,68.15
2023-04-27T01:46:58.959Z,67.76
2023-04-27T01:49:31.256Z,68.01
2023-04-27T01:52:27.323Z,67.95
2023-04-27T01:54:56.777Z,67.68
2023-04-27T01:57:32.680Z,67.56
2023-04-27T02:00:26.322Z,67.71
2023-04-27T02:06:23.389Z,68.40
2023-04-27T02:13:13.433Z,67.87
2023-04-27T02:16:48.252Z,67.82
2023-04-27T02:19:44.132Z,67.87
2023-04-27T02:22:21.940Z,68.03
2023-04-27T02:25:00.707Z,67.92
2023-04-27T02:27:49.915Z,68.15
2023-04-27T02:30:30.206Z,68.02
2023-04-27T02:33:07.552Z,68.42
2023-04-27T02:35:44.611Z,68.28
2023-04-27T02:38:19.665Z,67.72
2023-04-27T02:40:56.972Z,68.47
2023-04-27T02:43:30.783Z,68.27
2023-04-27T02:46:08.148Z,67.87
2023-04-27T02:48:48.693Z,68.09
2023-04-27T02:51:18.412Z,67.96
2023-04-27T02:53:48.476Z,68.30
2023-04-27T02:56:20.215Z,67.68
2023-04-27T02:58:49.968Z,68.27
2023-04-27T03:01:22.289Z,67.83
2023-04-27T03:03:49.545Z,68.01
2023-04-27T03:06:19.655Z,67.90
2023-04-27T03:08:53.438Z,68.66
2023-04-27T03:11:20.467Z,67.95
2023-04-27T03:13:52.565Z,68.36
2023-04-27T03:16:24.029Z,68.43
2023-04-27T03:18:51.514Z,68.13
2023-04-27T03:21:22.325Z,68.12
2023-04-27T03:23:53.807Z,68.36
2023-04-27T03:26:39.869Z,68.93
2023-04-27T03:29:09.139Z,68.25
2023-04-27T03:31:49.327Z,68.61
2023-04-27T03:34:29.175Z,67.99
2023-04-27T03:36:57.129Z,67.90
2023-04-27T03:39:26.716Z,68.44
2023-04-27T03:42:02.180Z,68.03
2023-04-27T03:44:38.309Z,68.52
2023-04-27T03:47:14.114Z,68.41
2023-04-27T03:50:03.073Z,68.64
2023-04-27T03:52:39.090Z,68.09
2023-04-27T03:55:10.058Z,69.11
2023-04-27T03:57:39.553Z,68.74
2023-04-27T04:00:13.225Z,68.42
2023-04-27T04:02:40.228Z,69.01
2023-04-27T04:05:10.002Z,68.25
2023-04-27T04:07:39.526Z,68.75
2023-04-27T04:10:11.783Z,68.84
2023-04-27T04:12:38.791Z,68.84
2023-04-27T04:15:14.128Z,69.11
2023-04-27T04:17:40.977Z,68.86
2023-04-27T04:20:10.946Z,68.80
2023-04-27T04:22:47.550Z,68.66
2023-04-27T04:25:22.314Z,68.68
2023-04-27T04:27:49.136Z,68.88
2023-04-27T04:30:40.995Z,68.69
2023-04-27T04:33:10.161Z,68.81
2023-04-27T04:35:41.637Z,68.21
2023-04-27T04:38:08.679Z,68.01
2023-04-27T04:40:46.098Z,68.74
2023-04-27T04:44:09.828Z,68.87
2023-04-27T04:47:31.766Z,68.81
2023-04-27T04:50:01.314Z,68.73
2023-04-27T04:52:39.010Z,68.52
2023-04-27T04:55:08.309Z,68.77
2023-04-27T04:57:35.147Z,69.12
2023-04-27T05:00:14.634Z,68.95
2023-04-27T05:02:49.619Z,68.99
2023-04-27T05:05:23.415Z,68.80
2023-04-27T05:07:55.293Z,69.30
2023-04-27T05:10:21.993Z,69.03
2023-04-27T05:12:48.531Z,68.81
2023-04-27T05:18:41.930Z,68.90
2023-04-27T05:21:32.797Z,68.58
2023-04-27T05:24:02.210Z,68.61
2023-04-27T05:30:30.082Z,69.41
2023-04-27T05:40:13.941Z,69.80
2023-04-27T05:42:47.626Z,69.29
2023-04-27T05:45:14.563Z,69.36
2023-04-27T05:47:44.136Z,69.05
2023-04-27T05:50:11.405Z,69.72
2023-04-27T05:52:49.189Z,69.53
2023-04-27T05:55:18.944Z,69.25
2023-04-27T05:57:57.178Z,69.64
2023-04-27T06:00:40.581Z,69.45
2023-04-27T06:03:40.090Z,69.61
2023-04-27T06:06:11.263Z,69.71
2023-04-27T06:08:44.451Z,69.89
2023-04-27T06:11:22.154Z,68.94
2023-04-27T06:14:11.048Z,69.35
2023-04-27T06:22:42.710Z,69.72
2023-04-27T06:28:32.447Z,69.38
2023-04-27T06:31:23.544Z,69.80
2023-04-27T06:40:17.359Z,69.35
2023-04-27T06:43:34.119Z,69.94
2023-04-27T06:46:56.017Z,70.42
2023-04-27T21:22:20.983Z,60.92
2023-04-27T21:24:47.549Z,61.26
2023-04-27T21:27:14.189Z,61.17
2023-04-27T21:29:42.697Z,60.96
2023-04-27T21:32:09.325Z,60.75
2023-04-27T21:34:37.098Z,61.06
2023-04-27T21:37:03.791Z,60.89
2023-04-27T21:39:32.864Z,60.99
2023-04-27T21:42:01.678Z,61.27
2023-04-27T21:44:28.435Z,60.86
2023-04-27T21:46:57.509Z,61.16
2023-04-27T21:49:24.571Z,61.14
2023-04-27T21:51:51.101Z,61.17
2023-04-27T21:54:20.472Z,61.17
2023-04-27T21:56:47.182Z,61.15
2023-04-27T21:59:16.508Z,61.33
2023-04-27T22:01:47.735Z,61.20
2023-04-27T22:04:22.919Z,61.28
2023-04-27T22:06:50.141Z,61.42
2023-04-27T22:09:20.115Z,61.37
2023-04-27T22:11:49.939Z,61.72
2023-04-27T22:14:21.513Z,61.46
2023-04-27T22:16:48.957Z,61.32
2023-04-27T22:19:18.555Z,61.50
2023-04-27T22:21:47.586Z,61.27
2023-04-27T22:24:14.403Z,61.52
2023-04-27T22:26:41.347Z,61.72
2023-04-27T22:29:10.160Z,61.25
2023-04-27T22:31:45.957Z,61.58
2023-04-27T22:34:13.587Z,61.43
2023-04-27T22:36:40.631Z,61.70
2023-04-27T22:39:07.363Z,61.19
2023-04-27T22:41:34.108Z,61.59
2023-04-27T22:44:00.835Z,61.94
2023-04-27T22:46:27.500Z,61.77
2023-04-27T22:48:54.300Z,61.58
2023-04-27T22:51:21.796Z,61.81
2023-04-27T22:53:51.670Z,61.73
2023-04-27T22:56:20.637Z,61.90
2023-04-27T22:58:49.681Z,61.80
2023-04-27T23:01:19.518Z,62.05
2023-04-27T23:03:49.305Z,62.13
2023-04-27T23:06:20.037Z,61.75
2023-04-27T23:08:49.141Z,61.91
2023-04-27T23:11:18.980Z,62.05
2023-04-27T23:13:48.209Z,62.08
2023-04-27T23:16:19.161Z,61.85
2023-04-27T23:18:47.260Z,61.91
2023-04-27T23:21:19.499Z,62.38
2023-04-27T23:23:48.844Z,62.39
2023-04-27T23:26:19.198Z,61.95
2023-04-27T23:28:49.730Z,62.01
2023-04-27T23:31:19.034Z,61.79
2023-04-27T23:33:48.105Z,61.86
2023-04-27T23:36:16.623Z,61.94
2023-04-27T23:38:43.197Z,62.11
2023-04-27T23:41:12.539Z,62.07
2023-04-27T23:43:39.692Z,62.34
2023-04-27T23:46:06.377Z,62.38
2023-04-27T23:48:39.264Z,62.20
2023-04-27T23:51:06.057Z,61.98
2023-04-27T23:53:32.683Z,61.91
2023-04-27T23:56:01.580Z,62.10
2023-04-27T23:58:28.238Z,62.25
